Rms Voerde — V2AD8 — position and weather

sailwx.info

Track history (hours):
 
Tides and Currents Weather Stations Pressure Air Temp Water Temp Dewpoint Dewpoint Depression Visibility Wind Speed Wind Dir Waves Ship Positions

Rms Voerde

Last reported at 2017-Nov-20 00:29 UTC. Time now 2017-Nov-22 15:06 UTC.
Position N 52°24' E 004°52'.

Length 90 m.

Type: Ship. MMSI: 304010905.

Date/timePositionNaut miles runAvg speedWind from/ knotsBaromVisibWave heightAir tempDewpointWater temp
2017-Nov-20 00:29N 52°24' E 004°52'0 0.0
2017-Nov-19 23:59N 52°24' E 004°52'0 0.0
2017-Nov-19 23:29N 52°24' E 004°52'0 0.0
2017-Nov-19 22:59N 52°24' E 004°52'0 0.0
2017-Nov-19 22:26N 52°24' E 004°52'0 0.0
2017-Nov-19 21:59N 52°24' E 004°52'0 0.0
2017-Nov-19 21:29N 52°24' E 004°52'0 0.0
2017-Nov-19 20:59N 52°24' E 004°52'0 0.0
2017-Nov-19 20:29N 52°24' E 004°52'0 0.0
2017-Nov-19 19:59N 52°24' E 004°52'0 0.0
2017-Nov-19 19:29N 52°24' E 004°52'0 0.0
2017-Nov-19 18:59N 52°24' E 004°52'0 0.0
2017-Nov-19 18:26N 52°24' E 004°52'0 0.0
2017-Nov-19 17:56N 52°24' E 004°52'0 0.0
2017-Nov-19 17:29N 52°24' E 004°52'0 0.0
2017-Nov-19 16:53N 52°24' E 004°52'0 0.0
2017-Nov-19 16:29N 52°24' E 004°52'0 0.0
2017-Nov-19 15:59N 52°24' E 004°52'0 0.0
2017-Nov-19 15:29N 52°24' E 004°52'0 0.0
2017-Nov-19 14:59N 52°24' E 004°52'0 0.0
2017-Nov-19 14:23N 52°24' E 004°52'0 0.0
2017-Nov-19 13:44N 52°24' E 004°52'0 0.0
2017-Nov-19 13:29N 52°24' E 004°52'0 0.0
2017-Nov-19 12:56N 52°24' E 004°52'0 0.0
2017-Nov-19 12:29N 52°24' E 004°52'0 0.0
2017-Nov-19 11:59N 52°24' E 004°52'0 0.0
2017-Nov-19 11:29N 52°24' E 004°52'0 0.0
2017-Nov-19 10:56N 52°24' E 004°52'0 0.0
2017-Nov-19 10:29N 52°24' E 004°52'0 0.0
2017-Nov-19 09:59N 52°24' E 004°52'0 0.0
2017-Nov-19 09:20N 52°24' E 004°52'0 0.0
2017-Nov-19 08:56N 52°24' E 004°52'0 0.0
2017-Nov-19 08:20N 52°24' E 004°52'0 0.0
2017-Nov-19 07:59N 52°24' E 004°52'0 0.0
2017-Nov-19 07:26N 52°24' E 004°52'0 0.1
2017-Nov-19 07:01N 52°24' E 004°52'1 2.6
2017-Nov-19 06:30N 52°25' E 004°50'5 9.9
2017-Nov-19 06:00N 52°26' E 004°42'4 8.2
2017-Nov-19 05:30N 52°28' E 004°36'1 1.1
2017-Nov-19 05:00N 52°28' E 004°35'5 9.4
2017-Nov-19 04:30N 52°28' E 004°27'510.4
2017-Nov-19 04:01N 52°28' E 004°19'510.6
2017-Nov-19 03:30N 52°29' E 004°10'511.0
2017-Nov-19 03:00N 52°27' E 004°02'610.9
2017-Nov-19 02:30N 52°25' E 003°53'510.5
2017-Nov-19 01:59N 52°22' E 003°47'5 9.7
2017-Nov-19 01:27N 52°17' E 003°42'510.2
2017-Nov-19 01:00N 52°14' E 003°37'28 7.7
2017-Nov-18 21:27N 51°49' E 003°19'6 6.9
2017-Nov-18 20:37N 51°43' E 003°17'4 6.9
2017-Nov-18 20:04N 51°40' E 003°20'1 8.0
2017-Nov-18 19:55N 51°39' E 003°21'4 8.6
2017-Nov-18 19:30N 51°36' E 003°23'4 8.9
2017-Nov-18 19:00N 51°31' E 003°26'510.2
2017-Nov-18 18:29N 51°27' E 003°31'4 9.1
2017-Nov-18 18:00N 51°26' E 003°38'612.2
2017-Nov-18 17:30N 51°23' E 003°47'5 9.9
2017-Nov-18 17:00N 51°24' E 003°55'5 9.3
2017-Nov-18 16:30N 51°26' E 004°02'510.9
2017-Nov-18 16:00N 51°23' E 004°09'4 7.4
2017-Nov-18 15:30N 51°21' E 004°14'5 9.4
2017-Nov-18 15:01N 51°18' E 004°19'3 6.8
2017-Nov-18 14:31N 51°14' E 004°21'2 4.5
2017-Nov-18 14:01N 51°13' E 004°23'3 6.9
2017-Nov-18 13:31N 51°10' E 004°20'3 6.1
2017-Nov-18 13:01N 51°07' E 004°18'1 2.5
2017-Nov-18 12:30N 51°06' E 004°19'2 4.6
2017-Nov-18 12:00N 51°04' E 004°22'0 0.0
2017-Nov-18 10:46N 51°04' E 004°22'0 0.0
2017-Nov-18 09:16N 51°04' E 004°22'0 0.0
2017-Nov-18 08:07N 51°04' E 004°22'0 0.0
2017-Nov-18 07:52N 51°04' E 004°22'0 0.0
2017-Nov-18 07:19N 51°04' E 004°22'0 0.0
2017-Nov-18 06:58N 51°04' E 004°22'0 0.0
2017-Nov-18 06:28N 51°04' E 004°22'0 0.0
2017-Nov-18 05:52N 51°04' E 004°22'0 0.0
2017-Nov-18 05:28N 51°04' E 004°22'0 0.0
2017-Nov-18 04:55N 51°04' E 004°22'0 0.0
2017-Nov-18 04:28N 51°04' E 004°22'0 0.0
2017-Nov-18 03:37N 51°04' E 004°22'0 0.0
2017-Nov-18 03:22N 51°04' E 004°22'0 0.0
2017-Nov-18 02:31N 51°04' E 004°22'0 0.0
2017-Nov-18 02:22N 51°04' E 004°22'0 0.0
2017-Nov-18 01:58N 51°04' E 004°22'0 0.0
2017-Nov-18 01:19N 51°04' E 004°22'0 0.0
2017-Nov-18 00:55N 51°04' E 004°22'0 0.0
2017-Nov-18 00:25N 51°04' E 004°22'0 0.0
2017-Nov-17 23:58N 51°04' E 004°22'0 0.0
2017-Nov-17 23:28N 51°04' E 004°22'0 0.0
2017-Nov-17 22:58N 51°04' E 004°22'0 0.0
2017-Nov-17 21:31N 51°04' E 004°22'0 0.0
2017-Nov-17 21:25N 51°04' E 004°22'0 0.0
2017-Nov-17 20:55N 51°04' E 004°22'0 0.0
2017-Nov-17 20:28N 51°04' E 004°22'0 0.0
2017-Nov-17 19:52N 51°04' E 004°22'0 0.0
2017-Nov-17 19:22N 51°04' E 004°22'0 0.0
2017-Nov-17 18:58N 51°04' E 004°22'0 0.0
2017-Nov-17 18:28N 51°04' E 004°22'0 0.0
2017-Nov-17 17:37N 51°04' E 004°22'0 0.0
2017-Nov-17 17:25N 51°04' E 004°22'0 0.0
2017-Nov-17 16:58N 51°04' E 004°22'0 0.0
2017-Nov-17 16:04N 51°04' E 004°22'0 0.0
2017-Nov-17 15:55N 51°04' E 004°22'0 0.0
2017-Nov-17 15:28N 51°04' E 004°22'0 0.0
2017-Nov-17 14:49N 51°04' E 004°22'0 0.0
2017-Nov-17 14:10N 51°04' E 004°22'0 0.0
2017-Nov-17 13:58N 51°04' E 004°22'0 0.0
2017-Nov-17 13:10N 51°04' E 004°22'0 0.0
2017-Nov-17 12:16N 51°04' E 004°22'0 0.0
2017-Nov-17 11:52N 51°04' E 004°22'0 0.0
2017-Nov-17 10:28N 51°04' E 004°22'0 0.0
2017-Nov-17 09:58N 51°04' E 004°22'0 0.0
2017-Nov-17 09:13N 51°04' E 004°22'0 0.0
2017-Nov-17 08:49N 51°04' E 004°22'0 0.0
2017-Nov-17 08:25N 51°04' E 004°22'0 0.6
2017-Nov-17 08:00N 51°05' E 004°22'3 6.0
2017-Nov-17 07:30N 51°07' E 004°18'1 1.2
2017-Nov-17 07:00N 51°07' E 004°18'3 5.8
2017-Nov-17 06:30N 51°10' E 004°20'3 6.8
2017-Nov-17 06:00N 51°13' E 004°23'2 4.7
2017-Nov-17 05:30N 51°14' E 004°21'3 5.7
2017-Nov-17 05:01N 51°17' E 004°19'4 7.6
2017-Nov-17 04:30N 51°20' E 004°16'4 8.2
2017-Nov-17 04:00N 51°24' E 004°12'4 8.0
2017-Nov-17 03:31N 51°22' E 004°06'4 8.5
2017-Nov-17 03:00N 51°26' E 004°02'3 6.5
2017-Nov-17 02:30N 51°24' E 003°57'5 9.2
2017-Nov-17 02:00N 51°21' E 003°52'5 9.7
2017-Nov-17 01:30N 51°22' E 003°44'510.1
2017-Nov-17 01:00N 51°25' E 003°38'510.0
2017-Nov-17 00:30N 51°28' E 003°31'510.2
2017-Nov-16 23:59N 51°32' E 003°25'510.6
2017-Nov-16 23:29N 51°36' E 003°21'611.0
2017-Nov-16 22:55N 51°42' E 003°16'46810.0
2017-Nov-15 00:02N 59°27' E 004°43'0 9.6
2017-Nov-15 00:00N 59°27' E 004°43'5 9.7
2017-Nov-14 23:30N 59°32' E 004°43'5 9.4
2017-Nov-14 23:00N 59°37' E 004°43'5 9.3
2017-Nov-14 22:30N 59°41' E 004°43'5 9.4
2017-Nov-14 22:00N 59°46' E 004°43'5 9.7
2017-Nov-14 21:30N 59°51' E 004°43'510.0
2017-Nov-14 21:00N 59°56' E 004°41'510.0
2017-Nov-14 20:30N 60°01' E 004°39'5 9.6
2017-Nov-14 20:00N 60°06' E 004°37'5 9.5
2017-Nov-14 19:30N 60°10' E 004°35'5 9.3
2017-Nov-14 19:00N 60°15' E 004°34'4 8.9
2017-Nov-14 18:30N 60°19' E 004°32'4 8.7
2017-Nov-14 18:00N 60°23' E 004°31'4 9.0
2017-Nov-14 17:30N 60°28' E 004°29'4 8.9
2017-Nov-14 17:00N 60°32' E 004°26'4 8.7
2017-Nov-14 16:30N 60°36' E 004°25'4 8.6
2017-Nov-14 16:00N 60°41' E 004°24'4 8.8
2017-Nov-14 15:30N 60°45' E 004°22'5 9.1
2017-Nov-14 15:00N 60°49' E 004°21'5 9.3
2017-Nov-14 14:30N 60°54' E 004°18'4 8.8
2017-Nov-14 14:00N 60°58' E 004°18'4 8.9
2017-Nov-14 13:30N 61°03' E 004°20'5 9.0
2017-Nov-14 13:00N 61°07' E 004°21'5 9.5
2017-Nov-14 12:31N 61°12' E 004°22'5 9.5
2017-Nov-14 12:00N 61°17' E 004°23'5 9.5
2017-Nov-14 11:30N 61°21' E 004°25'5 9.8
2017-Nov-14 11:00N 61°26' E 004°27'5 9.8
2017-Nov-14 10:30N 61°31' E 004°29'5 9.8
2017-Nov-14 10:00N 61°36' E 004°30'5 9.6
2017-Nov-14 09:30N 61°40' E 004°32'5 9.3
2017-Nov-14 09:00N 61°45' E 004°35'5 9.3
2017-Nov-14 08:30N 61°49' E 004°38'4 8.9
2017-Nov-14 08:00N 61°54' E 004°41'4 8.5
2017-Nov-14 07:30N 61°58' E 004°43'4 7.6
2017-Nov-14 06:59N 62°01' E 004°45'4 7.7
2017-Nov-14 06:30N 62°05' E 004°49'3 6.6
2017-Nov-14 06:00N 62°08' E 004°52'3 5.3
2017-Nov-14 05:31N 62°10' E 004°55'3 5.6
2017-Nov-14 05:01N 62°12' E 004°59'3 6.0
2017-Nov-14 04:31N 62°15' E 005°02'4 7.6
2017-Nov-14 04:00N 62°18' E 005°06'4 8.8
2017-Nov-14 03:30N 62°21' E 005°12'5 9.3
2017-Nov-14 03:00N 62°25' E 005°18'5 9.4
2017-Nov-14 02:31N 62°29' E 005°24'5 9.8
2017-Nov-14 01:59N 62°32' E 005°32'5 9.3
2017-Nov-14 01:30N 62°36' E 005°39'5 9.5
2017-Nov-14 01:00N 62°39' E 005°46'5 9.3
2017-Nov-14 00:30N 62°42' E 005°53'5 9.5
2017-Nov-14 00:00N 62°46' E 006°00'5 9.4
2017-Nov-13 23:30N 62°49' E 006°08'5 9.2
2017-Nov-13 23:01N 62°52' E 006°15'510.6
2017-Nov-13 22:30N 62°56' E 006°24'510.6
2017-Nov-13 22:00N 62°59' E 006°33'178 8.9
2017-Nov-13 02:00N 65°17' E 010°50'4 8.2
2017-Nov-13 01:30N 65°21' E 010°53'4 8.2
2017-Nov-13 01:00N 65°25' E 010°57'4 8.7
2017-Nov-13 00:30N 65°29' E 011°01'4 8.8
2017-Nov-13 00:00N 65°33' E 011°06'4 8.8
2017-Nov-12 23:30N 65°37' E 011°10'4 8.9
2017-Nov-12 23:00N 65°41' E 011°13'4 8.6
2017-Nov-12 22:30N 65°45' E 011°16'4 8.7
2017-Nov-12 22:00N 65°50' E 011°18'5 9.2
2017-Nov-12 21:30N 65°54' E 011°21'71 9.0
2017-Nov-12 13:37N 66°58' E 012°37'110.2
2017-Nov-12 13:30N 66°59' E 012°40'510.1
2017-Nov-12 13:00N 67°02' E 012°50'510.1
2017-Nov-12 12:30N 67°06' E 012°58'510.0
2017-Nov-12 12:00N 67°10' E 013°04'510.0
2017-Nov-12 11:30N 67°14' E 013°11'510.0
2017-Nov-12 10:59N 67°18' E 013°19'510.3
2017-Nov-12 10:30N 67°22' E 013°27'510.5
2017-Nov-12 10:00N 67°27' E 013°35'510.3
2017-Nov-12 09:31N 67°31' E 013°43'510.3
2017-Nov-12 09:00N 67°35' E 013°51'510.5
2017-Nov-12 08:30N 67°39' E 013°59'5 9.8
2017-Nov-12 08:00N 67°43' E 014°08'510.0
2017-Nov-12 07:30N 67°47' E 014°15'510.1
2017-Nov-12 07:00N 67°51' E 014°24'5 9.9
2017-Nov-12 06:30N 67°55' E 014°33'5 9.8
2017-Nov-12 06:00N 67°58' E 014°40'5 9.9
2017-Nov-12 05:30N 68°02' E 014°49'510.2
2017-Nov-12 05:00N 68°06' E 014°58'510.1
2017-Nov-12 04:30N 68°09' E 015°08'510.0
2017-Nov-12 04:01N 68°11' E 015°21'510.0
2017-Nov-12 03:30N 68°12' E 015°34'510.0
2017-Nov-12 03:00N 68°16' E 015°44'510.4
2017-Nov-12 02:30N 68°20' E 015°53'510.3
2017-Nov-12 02:00N 68°24' E 016°01'510.2
2017-Nov-12 01:30N 68°29' E 016°06'510.8
2017-Nov-12 01:00N 68°33' E 016°14'611.2
2017-Nov-12 00:30N 68°33' E 016°30'510.7
2017-Nov-12 00:00N 68°38' E 016°36'510.2
2017-Nov-11 23:31N 68°43' E 016°41'5 9.5
2017-Nov-11 22:59N 68°48' E 016°37'1 2.4
2017-Nov-11 22:28N 68°48' E 016°34'0 0.0
2017-Nov-11 21:58N 68°48' E 016°34'0 0.0
2017-Nov-11 21:28N 68°48' E 016°34'1 2.3
2017-Nov-11 21:00N 68°49' E 016°35'5 9.9
2017-Nov-11 20:30N 68°52' E 016°47'510.5
2017-Nov-11 20:00N 68°55' E 016°58'510.3
2017-Nov-11 19:30N 68°58' E 017°09'510.2
2017-Nov-11 19:00N 69°02' E 017°18'510.3
2017-Nov-11 18:31N 69°06' E 017°27'510.4
2017-Nov-11 18:00N 69°08' E 017°41'510.7
2017-Nov-11 17:30N 69°10' E 017°55'5 9.5
2017-Nov-11 17:00N 69°13' E 018°04'0 0.3
2017-Nov-11 16:29N 69°13' E 018°05'0 0.0
2017-Nov-11 15:59N 69°13' E 018°05'0 0.0
2017-Nov-11 15:29N 69°13' E 018°05'0 0.0
2017-Nov-11 14:59N 69°13' E 018°05'0 0.0
2017-Nov-11 14:29N 69°13' E 018°05'0 0.0
2017-Nov-11 13:59N 69°13' E 018°05'0 0.0
2017-Nov-11 13:29N 69°13' E 018°05'0 0.0
2017-Nov-11 12:59N 69°13' E 018°05'0 0.0
2017-Nov-11 12:29N 69°13' E 018°05'0 0.0
2017-Nov-11 11:59N 69°13' E 018°05'0 0.0
2017-Nov-11 11:29N 69°13' E 018°05'0 0.0
2017-Nov-11 10:59N 69°13' E 018°05'0 0.0
2017-Nov-11 10:29N 69°13' E 018°05'0 0.0
2017-Nov-11 09:59N 69°13' E 018°05'0 0.0
2017-Nov-11 09:29N 69°13' E 018°05'0 0.0
2017-Nov-11 08:59N 69°13' E 018°05'0 0.0
2017-Nov-11 08:29N 69°13' E 018°05'0 0.0
2017-Nov-11 07:59N 69°13' E 018°05'0 0.0
2017-Nov-11 07:29N 69°13' E 018°05'0 0.0
2017-Nov-11 06:59N 69°13' E 018°05'0 0.0
2017-Nov-11 06:29N 69°13' E 018°05'0 0.0
2017-Nov-11 06:00N 69°13' E 018°05'0 0.1
2017-Nov-11 05:30N 69°13' E 018°05'4 7.4
2017-Nov-11 05:00N 69°10' E 017°59'510.6
2017-Nov-11 04:30N 69°08' E 017°45'511.0
2017-Nov-11 04:00N 69°06' E 017°31'510.6
2017-Nov-11 03:30N 69°03' E 017°20'611.2
2017-Nov-11 03:00N 68°58' E 017°11'611.3
2017-Nov-11 02:30N 68°54' E 017°00'611.2
2017-Nov-11 02:00N 68°49' E 016°52'611.2
2017-Nov-11 01:30N 68°44' E 016°45'611.2
2017-Nov-11 01:00N 68°39' E 016°37'510.6
2017-Nov-11 00:29N 68°34' E 016°32'4 8.9
2017-Nov-11 00:00N 68°34' E 016°20'5 9.6
2017-Nov-10 23:30N 68°31' E 016°10'611.0
2017-Nov-10 22:59N 68°26' E 016°03'510.7
2017-Nov-10 22:30N 68°21' E 015°57'611.3
2017-Nov-10 22:00N 68°17' E 015°46'611.3
2017-Nov-10 21:30N 68°13' E 015°36'611.3
2017-Nov-10 20:59N 68°09' E 015°23'611.5
2017-Nov-10 20:30N 68°06' E 015°12'611.0
2017-Nov-10 20:00N 68°02' E 015°01'611.2
2017-Nov-10 19:30N 67°58' E 014°50'611.3
2017-Nov-10 18:59N 67°55' E 014°37'510.9
2017-Nov-10 18:30N 67°51' E 014°27'510.9
2017-Nov-10 18:00N 67°47' E 014°17'510.8
2017-Nov-10 17:30N 67°43' E 014°10'611.1
2017-Nov-10 17:00N 67°38' E 014°02'510.8
2017-Nov-10 16:30N 67°33' E 013°54'510.8
2017-Nov-10 16:00N 67°29' E 013°45'611.0
2017-Nov-10 15:30N 67°25' E 013°37'611.5
2017-Nov-10 15:00N 67°20' E 013°28'5 9.4
2017-Nov-10 14:30N 67°15' E 013°29'4 8.4
2017-Nov-10 14:00N 67°14' E 013°40'4 8.7
2017-Nov-10 13:31N 67°13' E 013°50'5 9.4
2017-Nov-10 13:01N 67°12' E 014°02'5 9.6
2017-Nov-10 12:31N 67°14' E 014°14'5 9.6
2017-Nov-10 12:01N 67°15' E 014°25'510.4
2017-Nov-10 11:30N 67°17' E 014°38'2 4.2
2017-Nov-10 11:00N 67°18' E 014°43'0 0.0
2017-Nov-10 10:30N 67°18' E 014°43'0 0.0
2017-Nov-10 10:00N 67°18' E 014°43'0 0.0
2017-Nov-10 09:30N 67°18' E 014°43'0 0.0
2017-Nov-10 09:00N 67°18' E 014°43'0 0.0
2017-Nov-10 08:30N 67°18' E 014°43'0 0.0
2017-Nov-10 08:00N 67°18' E 014°43'0 0.0
2017-Nov-10 07:30N 67°18' E 014°43'0 0.0
2017-Nov-10 07:00N 67°18' E 014°43'0 0.0
2017-Nov-10 06:30N 67°18' E 014°43'0 0.0
2017-Nov-10 06:00N 67°18' E 014°43'0 0.0
2017-Nov-10 05:30N 67°18' E 014°43'0 0.0
2017-Nov-10 05:00N 67°18' E 014°43'0 0.0
2017-Nov-10 04:30N 67°18' E 014°43'0 0.0
2017-Nov-10 04:00N 67°18' E 014°43'0 0.0
2017-Nov-10 03:30N 67°18' E 014°43'0 0.0
2017-Nov-10 03:00N 67°18' E 014°43'0 0.0
2017-Nov-10 02:30N 67°18' E 014°43'0 0.0
2017-Nov-10 02:00N 67°18' E 014°43'0 0.0
2017-Nov-10 01:30N 67°18' E 014°43'0 0.0
2017-Nov-10 01:00N 67°18' E 014°43'0 0.0
2017-Nov-10 00:30N 67°18' E 014°43'  
Track history (hours):
 
Tides and Currents Weather Stations Pressure Air Temp Water Temp Dewpoint Dewpoint Depression Visibility Wind Speed Wind Dir Waves Ship Positions

Rms Voerde

Last reported at 2017-Nov-20 00:29 UTC. Time now 2017-Nov-22 15:06 UTC.
Position N 52°24' E 004°52'.

Length 90 m.

Type: Ship. MMSI: 304010905.

Date/timePositionNaut miles runAvg speedWind from/ knotsBaromVisibWave heightAir tempDewpointWater temp
2017-Nov-20 00:29N 52°24' E 004°52'0 0.0
2017-Nov-19 23:59N 52°24' E 004°52'0 0.0
2017-Nov-19 23:29N 52°24' E 004°52'0 0.0
2017-Nov-19 22:59N 52°24' E 004°52'0 0.0
2017-Nov-19 22:26N 52°24' E 004°52'0 0.0
2017-Nov-19 21:59N 52°24' E 004°52'0 0.0
2017-Nov-19 21:29N 52°24' E 004°52'0 0.0
2017-Nov-19 20:59N 52°24' E 004°52'0 0.0
2017-Nov-19 20:29N 52°24' E 004°52'0 0.0
2017-Nov-19 19:59N 52°24' E 004°52'0 0.0
2017-Nov-19 19:29N 52°24' E 004°52'0 0.0
2017-Nov-19 18:59N 52°24' E 004°52'0 0.0
2017-Nov-19 18:26N 52°24' E 004°52'0 0.0
2017-Nov-19 17:56N 52°24' E 004°52'0 0.0
2017-Nov-19 17:29N 52°24' E 004°52'0 0.0
2017-Nov-19 16:53N 52°24' E 004°52'0 0.0
2017-Nov-19 16:29N 52°24' E 004°52'0 0.0
2017-Nov-19 15:59N 52°24' E 004°52'0 0.0
2017-Nov-19 15:29N 52°24' E 004°52'0 0.0
2017-Nov-19 14:59N 52°24' E 004°52'0 0.0
2017-Nov-19 14:23N 52°24' E 004°52'0 0.0
2017-Nov-19 13:44N 52°24' E 004°52'0 0.0
2017-Nov-19 13:29N 52°24' E 004°52'0 0.0
2017-Nov-19 12:56N 52°24' E 004°52'0 0.0
2017-Nov-19 12:29N 52°24' E 004°52'0 0.0
2017-Nov-19 11:59N 52°24' E 004°52'0 0.0
2017-Nov-19 11:29N 52°24' E 004°52'0 0.0
2017-Nov-19 10:56N 52°24' E 004°52'0 0.0
2017-Nov-19 10:29N 52°24' E 004°52'0 0.0
2017-Nov-19 09:59N 52°24' E 004°52'0 0.0
2017-Nov-19 09:20N 52°24' E 004°52'0 0.0
2017-Nov-19 08:56N 52°24' E 004°52'0 0.0
2017-Nov-19 08:20N 52°24' E 004°52'0 0.0
2017-Nov-19 07:59N 52°24' E 004°52'0 0.0
2017-Nov-19 07:26N 52°24' E 004°52'0 0.1
2017-Nov-19 07:01N 52°24' E 004°52'1 2.6
2017-Nov-19 06:30N 52°25' E 004°50'5 9.9
2017-Nov-19 06:00N 52°26' E 004°42'4 8.2
2017-Nov-19 05:30N 52°28' E 004°36'1 1.1
2017-Nov-19 05:00N 52°28' E 004°35'5 9.4
2017-Nov-19 04:30N 52°28' E 004°27'510.4
2017-Nov-19 04:01N 52°28' E 004°19'510.6
2017-Nov-19 03:30N 52°29' E 004°10'511.0
2017-Nov-19 03:00N 52°27' E 004°02'610.9
2017-Nov-19 02:30N 52°25' E 003°53'510.5
2017-Nov-19 01:59N 52°22' E 003°47'5 9.7
2017-Nov-19 01:27N 52°17' E 003°42'510.2
2017-Nov-19 01:00N 52°14' E 003°37'28 7.7
2017-Nov-18 21:27N 51°49' E 003°19'6 6.9
2017-Nov-18 20:37N 51°43' E 003°17'4 6.9
2017-Nov-18 20:04N 51°40' E 003°20'1 8.0
2017-Nov-18 19:55N 51°39' E 003°21'4 8.6
2017-Nov-18 19:30N 51°36' E 003°23'4 8.9
2017-Nov-18 19:00N 51°31' E 003°26'510.2
2017-Nov-18 18:29N 51°27' E 003°31'4 9.1
2017-Nov-18 18:00N 51°26' E 003°38'612.2
2017-Nov-18 17:30N 51°23' E 003°47'5 9.9
2017-Nov-18 17:00N 51°24' E 003°55'5 9.3
2017-Nov-18 16:30N 51°26' E 004°02'510.9
2017-Nov-18 16:00N 51°23' E 004°09'4 7.4
2017-Nov-18 15:30N 51°21' E 004°14'5 9.4
2017-Nov-18 15:01N 51°18' E 004°19'3 6.8
2017-Nov-18 14:31N 51°14' E 004°21'2 4.5
2017-Nov-18 14:01N 51°13' E 004°23'3 6.9
2017-Nov-18 13:31N 51°10' E 004°20'3 6.1
2017-Nov-18 13:01N 51°07' E 004°18'1 2.5
2017-Nov-18 12:30N 51°06' E 004°19'2 4.6
2017-Nov-18 12:00N 51°04' E 004°22'0 0.0
2017-Nov-18 10:46N 51°04' E 004°22'0 0.0
2017-Nov-18 09:16N 51°04' E 004°22'0 0.0
2017-Nov-18 08:07N 51°04' E 004°22'0 0.0
2017-Nov-18 07:52N 51°04' E 004°22'0 0.0
2017-Nov-18 07:19N 51°04' E 004°22'0 0.0
2017-Nov-18 06:58N 51°04' E 004°22'0 0.0
2017-Nov-18 06:28N 51°04' E 004°22'0 0.0
2017-Nov-18 05:52N 51°04' E 004°22'0 0.0
2017-Nov-18 05:28N 51°04' E 004°22'0 0.0
2017-Nov-18 04:55N 51°04' E 004°22'0 0.0
2017-Nov-18 04:28N 51°04' E 004°22'0 0.0
2017-Nov-18 03:37N 51°04' E 004°22'0 0.0
2017-Nov-18 03:22N 51°04' E 004°22'0 0.0
2017-Nov-18 02:31N 51°04' E 004°22'0 0.0
2017-Nov-18 02:22N 51°04' E 004°22'0 0.0
2017-Nov-18 01:58N 51°04' E 004°22'0 0.0
2017-Nov-18 01:19N 51°04' E 004°22'0 0.0
2017-Nov-18 00:55N 51°04' E 004°22'0 0.0
2017-Nov-18 00:25N 51°04' E 004°22'0 0.0
2017-Nov-17 23:58N 51°04' E 004°22'0 0.0
2017-Nov-17 23:28N 51°04' E 004°22'0 0.0
2017-Nov-17 22:58N 51°04' E 004°22'0 0.0
2017-Nov-17 21:31N 51°04' E 004°22'0 0.0
2017-Nov-17 21:25N 51°04' E 004°22'0 0.0
2017-Nov-17 20:55N 51°04' E 004°22'0 0.0
2017-Nov-17 20:28N 51°04' E 004°22'0 0.0
2017-Nov-17 19:52N 51°04' E 004°22'0 0.0
2017-Nov-17 19:22N 51°04' E 004°22'0 0.0
2017-Nov-17 18:58N 51°04' E 004°22'0 0.0
2017-Nov-17 18:28N 51°04' E 004°22'0 0.0
2017-Nov-17 17:37N 51°04' E 004°22'0 0.0
2017-Nov-17 17:25N 51°04' E 004°22'0 0.0
2017-Nov-17 16:58N 51°04' E 004°22'0 0.0
2017-Nov-17 16:04N 51°04' E 004°22'0 0.0
2017-Nov-17 15:55N 51°04' E 004°22'0 0.0
2017-Nov-17 15:28N 51°04' E 004°22'0 0.0
2017-Nov-17 14:49N 51°04' E 004°22'0 0.0
2017-Nov-17 14:10N 51°04' E 004°22'0 0.0
2017-Nov-17 13:58N 51°04' E 004°22'0 0.0
2017-Nov-17 13:10N 51°04' E 004°22'0 0.0
2017-Nov-17 12:16N 51°04' E 004°22'0 0.0
2017-Nov-17 11:52N 51°04' E 004°22'0 0.0
2017-Nov-17 10:28N 51°04' E 004°22'0 0.0
2017-Nov-17 09:58N 51°04' E 004°22'0 0.0
2017-Nov-17 09:13N 51°04' E 004°22'0 0.0
2017-Nov-17 08:49N 51°04' E 004°22'0 0.0
2017-Nov-17 08:25N 51°04' E 004°22'0 0.6
2017-Nov-17 08:00N 51°05' E 004°22'3 6.0
2017-Nov-17 07:30N 51°07' E 004°18'1 1.2
2017-Nov-17 07:00N 51°07' E 004°18'3 5.8
2017-Nov-17 06:30N 51°10' E 004°20'3 6.8
2017-Nov-17 06:00N 51°13' E 004°23'2 4.7
2017-Nov-17 05:30N 51°14' E 004°21'3 5.7
2017-Nov-17 05:01N 51°17' E 004°19'4 7.6
2017-Nov-17 04:30N 51°20' E 004°16'4 8.2
2017-Nov-17 04:00N 51°24' E 004°12'4 8.0
2017-Nov-17 03:31N 51°22' E 004°06'4 8.5
2017-Nov-17 03:00N 51°26' E 004°02'3 6.5
2017-Nov-17 02:30N 51°24' E 003°57'5 9.2
2017-Nov-17 02:00N 51°21' E 003°52'5 9.7
2017-Nov-17 01:30N 51°22' E 003°44'510.1
2017-Nov-17 01:00N 51°25' E 003°38'510.0
2017-Nov-17 00:30N 51°28' E 003°31'510.2
2017-Nov-16 23:59N 51°32' E 003°25'510.6
2017-Nov-16 23:29N 51°36' E 003°21'611.0
2017-Nov-16 22:55N 51°42' E 003°16'46810.0
2017-Nov-15 00:02N 59°27' E 004°43'0 9.6
2017-Nov-15 00:00N 59°27' E 004°43'5 9.7
2017-Nov-14 23:30N 59°32' E 004°43'5 9.4
2017-Nov-14 23:00N 59°37' E 004°43'5 9.3
2017-Nov-14 22:30N 59°41' E 004°43'5 9.4
2017-Nov-14 22:00N 59°46' E 004°43'5 9.7
2017-Nov-14 21:30N 59°51' E 004°43'510.0
2017-Nov-14 21:00N 59°56' E 004°41'510.0
2017-Nov-14 20:30N 60°01' E 004°39'5 9.6
2017-Nov-14 20:00N 60°06' E 004°37'5 9.5
2017-Nov-14 19:30N 60°10' E 004°35'5 9.3
2017-Nov-14 19:00N 60°15' E 004°34'4 8.9
2017-Nov-14 18:30N 60°19' E 004°32'4 8.7
2017-Nov-14 18:00N 60°23' E 004°31'4 9.0
2017-Nov-14 17:30N 60°28' E 004°29'4 8.9
2017-Nov-14 17:00N 60°32' E 004°26'4 8.7
2017-Nov-14 16:30N 60°36' E 004°25'4 8.6
2017-Nov-14 16:00N 60°41' E 004°24'4 8.8
2017-Nov-14 15:30N 60°45' E 004°22'5 9.1
2017-Nov-14 15:00N 60°49' E 004°21'5 9.3
2017-Nov-14 14:30N 60°54' E 004°18'4 8.8
2017-Nov-14 14:00N 60°58' E 004°18'4 8.9
2017-Nov-14 13:30N 61°03' E 004°20'5 9.0
2017-Nov-14 13:00N 61°07' E 004°21'5 9.5
2017-Nov-14 12:31N 61°12' E 004°22'5 9.5
2017-Nov-14 12:00N 61°17' E 004°23'5 9.5
2017-Nov-14 11:30N 61°21' E 004°25'5 9.8
2017-Nov-14 11:00N 61°26' E 004°27'5 9.8
2017-Nov-14 10:30N 61°31' E 004°29'5 9.8
2017-Nov-14 10:00N 61°36' E 004°30'5 9.6
2017-Nov-14 09:30N 61°40' E 004°32'5 9.3
2017-Nov-14 09:00N 61°45' E 004°35'5 9.3
2017-Nov-14 08:30N 61°49' E 004°38'4 8.9
2017-Nov-14 08:00N 61°54' E 004°41'4 8.5
2017-Nov-14 07:30N 61°58' E 004°43'4 7.6
2017-Nov-14 06:59N 62°01' E 004°45'4 7.7
2017-Nov-14 06:30N 62°05' E 004°49'3 6.6
2017-Nov-14 06:00N 62°08' E 004°52'3 5.3
2017-Nov-14 05:31N 62°10' E 004°55'3 5.6
2017-Nov-14 05:01N 62°12' E 004°59'3 6.0
2017-Nov-14 04:31N 62°15' E 005°02'4 7.6
2017-Nov-14 04:00N 62°18' E 005°06'4 8.8
2017-Nov-14 03:30N 62°21' E 005°12'5 9.3
2017-Nov-14 03:00N 62°25' E 005°18'5 9.4
2017-Nov-14 02:31N 62°29' E 005°24'5 9.8
2017-Nov-14 01:59N 62°32' E 005°32'5 9.3
2017-Nov-14 01:30N 62°36' E 005°39'5 9.5
2017-Nov-14 01:00N 62°39' E 005°46'5 9.3
2017-Nov-14 00:30N 62°42' E 005°53'5 9.5
2017-Nov-14 00:00N 62°46' E 006°00'5 9.4
2017-Nov-13 23:30N 62°49' E 006°08'5 9.2
2017-Nov-13 23:01N 62°52' E 006°15'510.6
2017-Nov-13 22:30N 62°56' E 006°24'510.6
2017-Nov-13 22:00N 62°59' E 006°33'178 8.9
2017-Nov-13 02:00N 65°17' E 010°50'4 8.2
2017-Nov-13 01:30N 65°21' E 010°53'4 8.2
2017-Nov-13 01:00N 65°25' E 010°57'4 8.7
2017-Nov-13 00:30N 65°29' E 011°01'4 8.8
2017-Nov-13 00:00N 65°33' E 011°06'4 8.8
2017-Nov-12 23:30N 65°37' E 011°10'4 8.9
2017-Nov-12 23:00N 65°41' E 011°13'4 8.6
2017-Nov-12 22:30N 65°45' E 011°16'4 8.7
2017-Nov-12 22:00N 65°50' E 011°18'5 9.2
2017-Nov-12 21:30N 65°54' E 011°21'71 9.0
2017-Nov-12 13:37N 66°58' E 012°37'110.2
2017-Nov-12 13:30N 66°59' E 012°40'510.1
2017-Nov-12 13:00N 67°02' E 012°50'510.1
2017-Nov-12 12:30N 67°06' E 012°58'510.0
2017-Nov-12 12:00N 67°10' E 013°04'510.0
2017-Nov-12 11:30N 67°14' E 013°11'510.0
2017-Nov-12 10:59N 67°18' E 013°19'510.3
2017-Nov-12 10:30N 67°22' E 013°27'510.5
2017-Nov-12 10:00N 67°27' E 013°35'510.3
2017-Nov-12 09:31N 67°31' E 013°43'510.3
2017-Nov-12 09:00N 67°35' E 013°51'510.5
2017-Nov-12 08:30N 67°39' E 013°59'5 9.8
2017-Nov-12 08:00N 67°43' E 014°08'510.0
2017-Nov-12 07:30N 67°47' E 014°15'510.1
2017-Nov-12 07:00N 67°51' E 014°24'5 9.9
2017-Nov-12 06:30N 67°55' E 014°33'5 9.8
2017-Nov-12 06:00N 67°58' E 014°40'5 9.9
2017-Nov-12 05:30N 68°02' E 014°49'510.2
2017-Nov-12 05:00N 68°06' E 014°58'510.1
2017-Nov-12 04:30N 68°09' E 015°08'510.0
2017-Nov-12 04:01N 68°11' E 015°21'510.0
2017-Nov-12 03:30N 68°12' E 015°34'510.0
2017-Nov-12 03:00N 68°16' E 015°44'510.4
2017-Nov-12 02:30N 68°20' E 015°53'510.3
2017-Nov-12 02:00N 68°24' E 016°01'510.2
2017-Nov-12 01:30N 68°29' E 016°06'510.8
2017-Nov-12 01:00N 68°33' E 016°14'611.2
2017-Nov-12 00:30N 68°33' E 016°30'510.7
2017-Nov-12 00:00N 68°38' E 016°36'510.2
2017-Nov-11 23:31N 68°43' E 016°41'5 9.5
2017-Nov-11 22:59N 68°48' E 016°37'1 2.4
2017-Nov-11 22:28N 68°48' E 016°34'0 0.0
2017-Nov-11 21:58N 68°48' E 016°34'0 0.0
2017-Nov-11 21:28N 68°48' E 016°34'1 2.3
2017-Nov-11 21:00N 68°49' E 016°35'5 9.9
2017-Nov-11 20:30N 68°52' E 016°47'510.5
2017-Nov-11 20:00N 68°55' E 016°58'510.3
2017-Nov-11 19:30N 68°58' E 017°09'510.2
2017-Nov-11 19:00N 69°02' E 017°18'510.3
2017-Nov-11 18:31N 69°06' E 017°27'510.4
2017-Nov-11 18:00N 69°08' E 017°41'510.7
2017-Nov-11 17:30N 69°10' E 017°55'5 9.5
2017-Nov-11 17:00N 69°13' E 018°04'0 0.3
2017-Nov-11 16:29N 69°13' E 018°05'0 0.0
2017-Nov-11 15:59N 69°13' E 018°05'0 0.0
2017-Nov-11 15:29N 69°13' E 018°05'0 0.0
2017-Nov-11 14:59N 69°13' E 018°05'0 0.0
2017-Nov-11 14:29N 69°13' E 018°05'0 0.0
2017-Nov-11 13:59N 69°13' E 018°05'0 0.0
2017-Nov-11 13:29N 69°13' E 018°05'0 0.0
2017-Nov-11 12:59N 69°13' E 018°05'0 0.0
2017-Nov-11 12:29N 69°13' E 018°05'0 0.0
2017-Nov-11 11:59N 69°13' E 018°05'0 0.0
2017-Nov-11 11:29N 69°13' E 018°05'0 0.0
2017-Nov-11 10:59N 69°13' E 018°05'0 0.0
2017-Nov-11 10:29N 69°13' E 018°05'0 0.0
2017-Nov-11 09:59N 69°13' E 018°05'0 0.0
2017-Nov-11 09:29N 69°13' E 018°05'0 0.0
2017-Nov-11 08:59N 69°13' E 018°05'0 0.0
2017-Nov-11 08:29N 69°13' E 018°05'0 0.0
2017-Nov-11 07:59N 69°13' E 018°05'0 0.0
2017-Nov-11 07:29N 69°13' E 018°05'0 0.0
2017-Nov-11 06:59N 69°13' E 018°05'0 0.0
2017-Nov-11 06:29N 69°13' E 018°05'0 0.0
2017-Nov-11 06:00N 69°13' E 018°05'0 0.1
2017-Nov-11 05:30N 69°13' E 018°05'4 7.4
2017-Nov-11 05:00N 69°10' E 017°59'510.6
2017-Nov-11 04:30N 69°08' E 017°45'511.0
2017-Nov-11 04:00N 69°06' E 017°31'510.6
2017-Nov-11 03:30N 69°03' E 017°20'611.2
2017-Nov-11 03:00N 68°58' E 017°11'611.3
2017-Nov-11 02:30N 68°54' E 017°00'611.2
2017-Nov-11 02:00N 68°49' E 016°52'611.2
2017-Nov-11 01:30N 68°44' E 016°45'611.2
2017-Nov-11 01:00N 68°39' E 016°37'510.6
2017-Nov-11 00:29N 68°34' E 016°32'4 8.9
2017-Nov-11 00:00N 68°34' E 016°20'5 9.6
2017-Nov-10 23:30N 68°31' E 016°10'611.0
2017-Nov-10 22:59N 68°26' E 016°03'510.7
2017-Nov-10 22:30N 68°21' E 015°57'611.3
2017-Nov-10 22:00N 68°17' E 015°46'611.3
2017-Nov-10 21:30N 68°13' E 015°36'611.3
2017-Nov-10 20:59N 68°09' E 015°23'611.5
2017-Nov-10 20:30N 68°06' E 015°12'611.0
2017-Nov-10 20:00N 68°02' E 015°01'611.2
2017-Nov-10 19:30N 67°58' E 014°50'611.3
2017-Nov-10 18:59N 67°55' E 014°37'510.9
2017-Nov-10 18:30N 67°51' E 014°27'510.9
2017-Nov-10 18:00N 67°47' E 014°17'510.8
2017-Nov-10 17:30N 67°43' E 014°10'611.1
2017-Nov-10 17:00N 67°38' E 014°02'510.8
2017-Nov-10 16:30N 67°33' E 013°54'510.8
2017-Nov-10 16:00N 67°29' E 013°45'611.0
2017-Nov-10 15:30N 67°25' E 013°37'611.5
2017-Nov-10 15:00N 67°20' E 013°28'5 9.4
2017-Nov-10 14:30N 67°15' E 013°29'4 8.4
2017-Nov-10 14:00N 67°14' E 013°40'4 8.7
2017-Nov-10 13:31N 67°13' E 013°50'5 9.4
2017-Nov-10 13:01N 67°12' E 014°02'5 9.6
2017-Nov-10 12:31N 67°14' E 014°14'5 9.6
2017-Nov-10 12:01N 67°15' E 014°25'510.4
2017-Nov-10 11:30N 67°17' E 014°38'2 4.2
2017-Nov-10 11:00N 67°18' E 014°43'0 0.0
2017-Nov-10 10:30N 67°18' E 014°43'0 0.0
2017-Nov-10 10:00N 67°18' E 014°43'0 0.0
2017-Nov-10 09:30N 67°18' E 014°43'0 0.0
2017-Nov-10 09:00N 67°18' E 014°43'0 0.0
2017-Nov-10 08:30N 67°18' E 014°43'0 0.0
2017-Nov-10 08:00N 67°18' E 014°43'0 0.0
2017-Nov-10 07:30N 67°18' E 014°43'0 0.0
2017-Nov-10 07:00N 67°18' E 014°43'0 0.0
2017-Nov-10 06:30N 67°18' E 014°43'0 0.0
2017-Nov-10 06:00N 67°18' E 014°43'0 0.0
2017-Nov-10 05:30N 67°18' E 014°43'0 0.0
2017-Nov-10 05:00N 67°18' E 014°43'0 0.0
2017-Nov-10 04:30N 67°18' E 014°43'0 0.0
2017-Nov-10 04:00N 67°18' E 014°43'0 0.0
2017-Nov-10 03:30N 67°18' E 014°43'0 0.0
2017-Nov-10 03:00N 67°18' E 014°43'0 0.0
2017-Nov-10 02:30N 67°18' E 014°43'0 0.0
2017-Nov-10 02:00N 67°18' E 014°43'0 0.0
2017-Nov-10 01:30N 67°18' E 014°43'0 0.0
2017-Nov-10 01:00N 67°18' E 014°43'0 0.0
2017-Nov-10 00:30N 67°18' E 014°43'  

Dump ship's entire track history